Time;durP1;ratioP1;P1;durP2;ratioP2;P2;SDS_P1;SDS_P2;PMS_P1;PMS_P2;Temp;Humidity;BMP_temperature;BMP_pressure;BME280_temperature;BME280_humidity;BME280_pressure;Samples;Min_cycle;Max_cycle;Signal;HPM_P1;HPM_P2
2022/06/20 00:00:12;;;;;;;5.60;2.92;;;;;;;17.97;67.14;100251.50;18360015;32;20176;-64
2022/06/20 00:10:19;;;;;;;5.65;3.12;;;;;;;17.31;69.68;100250.16;18359565;32;20107;-65
2022/06/20 00:20:22;;;;;;;5.80;3.08;;;;;;;17.22;70.50;100246.06;18359331;32;20086;-65
2022/06/20 00:30:27;;;;;;;5.57;3.10;;;;;;;16.90;70.91;100237.37;18358615;32;20112;-65
2022/06/20 00:40:35;;;;;;;8.60;3.10;;;;;;;17.43;69.25;100219.87;18358532;32;20148;-65
2022/06/20 00:50:40;;;;;;;7.53;3.20;;;;;;;16.82;71.29;100239.41;18358076;32;20126;-65
2022/06/20 01:00:43;;;;;;;7.75;3.30;;;;;;;17.02;70.23;100218.56;18357293;32;20090;-65
2022/06/20 01:10:52;;;;;;;5.82;3.37;;;;;;;16.17;74.06;100214.03;18356563;32;20124;-65
2022/06/20 01:20:56;;;;;;;6.57;3.20;;;;;;;16.83;70.97;100193.66;18357008;32;20445;-65
2022/06/20 01:31:01;;;;;;;6.28;3.10;;;;;;;16.88;70.61;100183.81;18356569;32;20117;-65
2022/06/20 01:51:34;;;;;;;6.53;3.43;;;;;;;16.27;72.77;100179.53;18355521;32;20093;-65
2022/06/20 02:01:38;;;;;;;6.80;3.50;;;;;;;16.58;71.30;100173.34;18355126;32;20137;-65
2022/06/20 02:11:46;;;;;;;8.13;3.58;;;;;;;16.48;71.48;100155.19;18354375;32;20165;-65
2022/06/20 02:21:49;;;;;;;7.85;3.28;;;;;;;16.20;71.69;100163.91;18354546;32;20459;-65
2022/06/20 02:31:57;;;;;;;9.18;3.50;;;;;;;16.39;71.57;100149.34;18363256;32;20107;-65
2022/06/20 02:42:04;;;;;;;6.57;3.60;;;;;;;15.93;72.82;100153.31;18362675;32;20136;-65
2022/06/20 02:52:12;;;;;;;7.95;3.90;;;;;;;16.01;72.70;100152.19;18362779;32;20089;-65
2022/06/20 03:02:16;;;;;;;9.18;3.75;;;;;;;15.94;72.73;100157.66;18362234;32;20103;-65
2022/06/20 03:12:21;;;;;;;7.20;3.37;;;;;;;15.53;73.77;100122.78;18361708;32;20093;-65
2022/06/20 03:22:29;;;;;;;7.30;3.83;;;;;;;15.91;72.87;100123.50;18361141;31;20093;-65
2022/06/20 03:32:39;;;;;;;9.57;3.80;;;;;;;15.29;75.13;100117.28;18361710;32;20154;-65
2022/06/20 03:42:43;;;;;;;6.53;3.25;;;;;;;15.61;74.39;100123.44;18360683;32;20117;-65
2022/06/20 03:52:50;;;;;;;7.45;3.67;;;;;;;16.49;71.37;100112.13;18360231;32;20228;-65
2022/06/20 04:02:56;;;;;;;7.37;3.33;;;;;;;15.96;74.71;100115.47;18360029;32;20107;-65
2022/06/20 04:13:04;;;;;;;8.25;3.50;;;;;;;16.83;73.65;100119.88;18411998;31;20112;-65
2022/06/20 04:23:12;;;;;;;8.95;3.50;;;;;;;17.77;70.94;100120.19;18358894;32;20731;-66
2022/06/20 04:33:20;;;;;;;5.62;2.92;;;;;;;18.97;66.96;100112.03;18358870;32;20112;-66
2022/06/20 04:43:35;;;;;;;5.70;2.70;;;;;;;22.23;56.71;100104.41;18411253;31;20085;-66
2022/06/20 04:53:42;;;;;;;5.40;2.60;;;;;;;23.28;53.23;100103.72;18357580;32;20086;-66
2022/06/20 05:03:47;;;;;;;5.20;2.30;;;;;;;25.60;47.14;100099.53;18357359;32;20097;-66
2022/06/20 05:13:54;;;;;;;6.15;2.37;;;;;;;24.87;45.94;100095.63;18357079;32;20101;-66
2022/06/20 05:24:00;;;;;;;5.82;2.40;;;;;;;25.14;47.63;100111.56;18356597;32;20107;-66
2022/06/20 05:34:12;;;;;;;5.87;2.33;;;;;;;25.64;45.03;100102.84;18357373;32;20380;-66
2022/06/20 05:44:16;;;;;;;3.80;2.00;;;;;;;25.80;44.56;100107.97;18408544;31;20414;-66
2022/06/20 05:54:23;;;;;;;5.40;1.98;;;;;;;24.23;48.34;100116.59;18355550;32;20417;-66
2022/06/20 06:04:31;;;;;;;4.68;2.22;;;;;;;24.05;50.22;100126.62;18366840;32;20088;-66
2022/06/20 06:14:40;;;;;;;4.43;2.05;;;;;;;24.33;48.16;100116.88;18377512;32;20085;-66
2022/06/20 06:24:46;;;;;;;7.97;2.53;;;;;;;25.92;45.88;100095.53;18414027;31;20094;-66
2022/06/20 06:34:54;;;;;;;5.70;2.37;;;;;;;25.57;47.35;100105.09;18417407;32;20188;-66
2022/06/20 06:44:59;;;;;;;6.80;2.60;;;;;;;26.43;44.15;100089.19;18417724;32;20088;-66
2022/06/20 06:55:07;;;;;;;5.95;2.60;;;;;;;26.58;42.73;100086.34;18415278;32;20088;-66
2022/06/20 07:05:16;;;;;;;6.87;2.55;;;;;;;26.54;45.99;100077.69;18415670;32;20362;-66
2022/06/20 07:15:24;;;;;;;6.67;2.53;;;;;;;27.67;41.18;100062.00;18467501;31;20105;-67
2022/06/20 07:25:35;;;;;;;4.62;2.10;;;;;;;28.50;38.38;100032.94;18424191;31;20465;-66
2022/06/20 07:35:44;;;;;;;3.60;2.10;;;;;;;30.46;34.20;100015.91;18390877;31;20342;-66
2022/06/20 07:45:50;;;;;;;6.13;2.60;;;;;;;30.24;32.26;100006.28;18360135;32;20084;-66
2022/06/20 07:56:00;;;;;;;4.55;2.20;;;;;;;31.39;33.42;100009.06;18360325;32;20189;-66
2022/06/20 08:06:05;;;;;;;6.85;2.45;;;;;;;30.84;35.90;100009.78;18359772;32;20099;-66
2022/06/20 08:16:14;;;;;;;5.20;2.42;;;;;;;30.92;35.99;100001.84;18368311;32;20111;-68
2022/06/20 08:26:18;;;;;;;;;;;;;;;31.31;34.09;99992.81;18472811;31;138863;-67
2022/06/20 08:36:27;;;;;;;4.45;2.65;;;;;;;31.38;34.23;99987.66;18475730;31;20292;-67
2022/06/20 08:47:07;;;;;;;6.37;2.72;;;;;;;31.68;34.34;99978.41;18409523;31;20104;-67
2022/06/20 08:57:15;;;;;;;5.62;2.75;;;;;;;32.33;32.62;99962.16;18376722;32;20154;-66
2022/06/20 09:07:52;;;;;;;6.70;2.95;;;;;;;31.34;32.55;99960.16;18405066;32;20127;-66
2022/06/20 09:18:04;;;;;;;6.78;3.22;;;;;;;32.77;31.02;99945.97;18376597;32;20132;-69
2022/06/20 09:28:34;;;;;;;6.62;3.00;;;;;;;33.01;30.24;99933.63;18419757;32;20100;-67
2022/06/20 09:38:51;;;;;;;6.78;3.20;;;;;;;32.82;31.91;99906.78;18419340;32;20111;-67
2022/06/20 09:49:00;;;;;;;6.65;3.35;;;;;;;33.04;32.00;99892.75;18419514;32;20086;-67
2022/06/20 09:59:09;;;;;;;6.22;2.78;;;;;;;32.97;31.42;99886.28;18419372;32;20122;-68
2022/06/20 10:09:18;;;;;;;5.43;2.85;;;;;;;33.52;30.60;99870.59;18399836;32;20544;-68
2022/06/20 10:19:26;;;;;;;8.83;2.80;;;;;;;33.06;32.06;99860.97;18387474;32;20116;-67
2022/06/20 10:29:41;;;;;;;6.95;3.42;;;;;;;33.21;30.29;99844.12;18392958;32;20101;-68
2022/06/20 10:39:54;;;;;;;5.80;3.10;;;;;;;33.78;31.15;99852.50;18352685;32;20100;-67
2022/06/20 10:50:11;;;;;;;6.40;3.30;;;;;;;33.30;31.01;99848.56;18361570;32;20082;-68
2022/06/20 11:00:17;;;;;;;8.13;3.65;;;;;;;34.17;31.93;99843.72;18502533;32;20163;-67
2022/06/20 11:10:38;;;;;;;6.07;2.90;;;;;;;33.80;29.22;99821.56;18481548;32;20085;-67
2022/06/20 11:20:46;;;;;;;7.40;4.15;;;;;;;34.43;28.54;99811.00;18429362;31;20094;-67
2022/06/20 11:31:02;;;;;;;6.33;3.10;;;;;;;34.69;29.66;99803.66;18480436;31;20467;-68
2022/06/20 11:41:17;;;;;;;6.20;2.85;;;;;;;34.52;27.86;99800.09;18461550;31;20507;-68
2022/06/20 11:51:26;;;;;;;4.95;2.62;;;;;;;34.82;28.65;99809.34;18444865;31;20098;-67
2022/06/20 12:01:33;;;;;;;6.28;3.47;;;;;;;34.72;26.88;99806.00;18413516;32;20084;-67
2022/06/20 12:11:50;;;;;;;5.07;2.73;;;;;;;35.79;26.25;99787.34;18367661;32;20183;-67
2022/06/20 12:32:19;;;;;;;4.85;2.90;;;;;;;35.44;25.24;99754.41;18460673;32;20106;-67
2022/06/20 12:42:28;;;;;;;4.72;2.70;;;;;;;35.75;26.05;99748.87;18232258;32;20162;-67
2022/06/20 12:52:40;;;;;;;6.22;2.80;;;;;;;35.13;24.97;99756.16;18260561;32;20439;-67
2022/06/20 13:03:20;;;;;;;5.53;2.95;;;;;;;35.98;25.45;99737.09;18294037;32;20093;-67
2022/06/20 13:13:57;;;;;;;6.40;3.03;;;;;;;36.59;24.27;99738.78;18265233;32;20132;-67
2022/06/20 13:24:12;;;;;;;7.18;2.90;;;;;;;35.66;25.86;99720.13;18315082;31;20123;-67
2022/06/20 13:34:19;;;;;;;5.28;2.40;;;;;;;36.67;23.02;99709.81;18438986;31;20126;-68
2022/06/20 13:44:32;;;;;;;5.15;2.35;;;;;;;35.62;24.45;99714.25;18408556;32;20089;-67
2022/06/20 13:54:40;;;;;;;4.30;2.40;;;;;;;36.43;24.34;99701.78;18456679;31;20462;-68
2022/06/20 14:04:44;;;;;;;12.73;2.43;;;;;;;35.82;24.25;99684.66;18352511;32;20119;-67
2022/06/20 14:15:00;;;;;;;3.25;1.90;;;;;;;36.33;21.32;99674.06;18354633;32;20089;-68
2022/06/20 14:25:41;;;;;;;3.55;1.95;;;;;;;35.26;23.90;99675.00;18358229;32;20461;-66
2022/06/20 14:35:55;;;;;;;7.47;2.08;;;;;;;35.19;22.38;99668.66;18356872;32;20563;-66
2022/06/20 14:46:07;;;;;;;4.53;2.15;;;;;;;35.89;21.43;99656.78;18362855;32;20108;-66
2022/06/20 14:56:13;;;;;;;2.75;1.80;;;;;;;35.24;22.45;99644.50;18362916;32;20141;-66
2022/06/20 15:06:25;;;;;;;6.25;2.10;;;;;;;34.90;22.16;99629.50;18415170;31;20089;-67
2022/06/20 15:16:32;;;;;;;4.53;1.83;;;;;;;34.87;22.98;99629.88;18414482;31;20120;-67
2022/06/20 15:26:39;;;;;;;4.53;2.00;;;;;;;34.12;24.21;99619.50;18361507;31;20129;-66
2022/06/20 15:36:43;;;;;;;6.50;2.40;;;;;;;34.44;24.50;99628.47;18364245;32;20089;-67
2022/06/20 15:46:59;;;;;;;4.50;1.90;;;;;;;34.53;25.28;99625.75;18378799;32;20129;-66
2022/06/20 15:57:17;;;;;;;4.47;2.20;;;;;;;34.36;25.07;99606.84;18412836;31;20104;-67
2022/06/20 16:07:30;;;;;;;4.78;2.53;;;;;;;34.01;26.86;99611.78;18391596;31;20088;-68
2022/06/20 16:17:37;;;;;;;6.40;2.65;;;;;;;34.10;26.25;99599.88;18563273;31;20361;-66
2022/06/20 16:27:43;;;;;;;4.10;2.72;;;;;;;34.32;27.04;99594.66;18358754;32;20101;-67
2022/06/20 16:37:47;;;;;;;3.92;2.40;;;;;;;34.24;27.60;99590.16;18358807;32;20117;-67
2022/06/20 16:48:00;;;;;;;4.90;2.45;;;;;;;34.22;28.70;99592.22;18357206;31;20113;-67
2022/06/20 16:58:12;;;;;;;5.00;2.20;;;;;;;33.45;29.25;99602.59;18357991;31;20090;-66
2022/06/20 17:08:22;;;;;;;5.40;2.22;;;;;;;33.59;29.63;99584.84;18410406;31;20116;-68
2022/06/20 17:18:33;;;;;;;5.43;2.40;;;;;;;33.36;30.15;99584.72;18357162;32;20096;-67
2022/06/20 17:28:50;;;;;;;4.07;2.28;;;;;;;33.21;31.11;99571.06;18356272;32;20134;-67
2022/06/20 17:39:09;;;;;;;4.15;2.53;;;;;;;32.98;32.69;99574.44;18355863;32;20089;-67
2022/06/20 17:49:23;;;;;;;4.80;2.83;;;;;;;32.35;35.81;99572.16;18356875;32;20101;-66
2022/06/20 17:59:33;;;;;;;6.97;2.95;;;;;;;32.05;36.28;99581.69;18354907;31;20093;-68
2022/06/20 18:09:43;;;;;;;6.97;3.15;;;;;;;31.62;38.12;99590.59;18354825;32;20121;-66
2022/06/20 18:19:50;;;;;;;6.00;2.83;;;;;;;30.77;38.73;99577.66;18354744;32;20180;-67
2022/06/20 18:29:56;;;;;;;6.75;2.70;;;;;;;30.42;41.37;99580.19;18364016;32;20454;-66
2022/06/20 18:40:06;;;;;;;6.35;3.00;;;;;;;29.42;44.35;99594.22;18417535;32;20097;-67
2022/06/20 18:50:26;;;;;;;4.32;2.45;;;;;;;29.09;45.78;99605.31;18405212;32;20093;-66
2022/06/20 19:00:45;;;;;;;6.07;3.17;;;;;;;28.03;47.34;99612.06;18355280;32;20133;-66
2022/06/20 19:11:16;;;;;;;6.53;3.12;;;;;;;27.63;49.94;99615.56;18403378;31;20110;-67
2022/06/20 19:21:44;;;;;;;8.23;3.20;;;;;;;26.90;51.73;99624.38;18378421;32;20140;-67
2022/06/20 19:31:53;;;;;;;6.70;3.40;;;;;;;26.80;50.19;99640.31;18409575;32;20357;-67
2022/06/20 19:42:02;;;;;;;8.88;3.53;;;;;;;26.71;50.00;99625.88;18424567;32;20103;-67
2022/06/20 19:52:39;;;;;;;8.00;3.30;;;;;;;26.41;51.33;99622.88;18409739;31;20092;-67
2022/06/20 20:03:31;;;;;;;7.20;3.45;;;;;;;25.40;55.78;99624.53;18386320;32;20097;-67
2022/06/20 20:13:39;;;;;;;8.73;3.90;;;;;;;25.98;54.11;99643.22;18419655;32;20160;-66
2022/06/20 20:23:46;;;;;;;11.98;4.35;;;;;;;25.34;56.52;99653.44;18408052;32;20517;-67
2022/06/20 20:34:05;;;;;;;8.70;4.10;;;;;;;25.19;57.28;99657.25;18418400;32;20100;-67
2022/06/20 20:44:28;;;;;;;9.47;4.03;;;;;;;25.58;56.22;99651.69;18405190;32;20483;-67
2022/06/20 20:54:35;;;;;;;7.72;3.87;;;;;;;24.75;58.52;99649.75;18396349;32;20634;-68
2022/06/20 21:05:02;;;;;;;7.62;3.95;;;;;;;24.75;58.42;99636.41;18406545;32;20136;-66
2022/06/20 21:15:28;;;;;;;;;;;;;;;25.04;57.68;99641.44;18394350;32;20081;-68
2022/06/20 21:25:32;;;;;;;7.93;4.00;;;;;;;24.85;58.23;99644.63;18394050;32;20006;-66
2022/06/20 21:35:37;;;;;;;10.02;4.12;;;;;;;25.04;58.00;99660.13;18382185;32;20112;-66
2022/06/20 21:45:43;;;;;;;10.20;4.43;;;;;;;25.26;56.81;99655.84;18397799;32;20088;-66
2022/06/20 21:55:48;;;;;;;7.68;4.03;;;;;;;25.10;57.96;99671.31;18419716;31;20396;-66
2022/06/20 22:05:52;;;;;;;9.95;4.78;;;;;;;25.49;56.47;99706.63;18419181;32;20084;-66
2022/06/20 22:15:56;;;;;;;11.02;4.82;;;;;;;26.52;53.75;99675.53;18418453;32;20097;-67
2022/06/20 22:26:02;;;;;;;9.38;4.07;;;;;;;27.11;51.81;99676.13;18417707;32;20129;-67
2022/06/20 22:36:10;;;;;;;7.93;2.97;;;;;;;27.21;51.68;99654.75;18417797;32;20085;-66
2022/06/20 22:46:31;;;;;;;6.55;3.37;;;;;;;27.47;45.80;99665.09;18427247;32;20400;-66
2022/06/20 22:56:37;;;;;;;7.25;3.03;;;;;;;26.83;52.23;99682.88;18426772;32;20112;-66
2022/06/20 23:06:48;;;;;;;7.43;3.50;;;;;;;26.42;54.42;99745.00;18426031;32;20089;-66
2022/06/20 23:27:19;;;;;;;7.12;3.53;;;;;;;26.20;54.96;99766.41;18425398;32;20381;-66
2022/06/20 23:37:23;;;;;;;6.78;3.12;;;;;;;26.48;54.31;99745.50;18425255;32;20144;-67
2022/06/20 23:47:29;;;;;;;7.82;3.22;;;;;;;26.73;53.22;99763.94;18424729;32;20085;-67
2022/06/20 23:57:34;;;;;;;6.55;2.95;;;;;;;26.62;52.99;99739.88;18424103;32;20137;-66
